Nearby METAR Reports

 

KEDC - Austin Exec, Texas, USA
Distance from station: SW 16mi, 25km
Updated: Thu, 02-Dec-2021 9:35am CST
Fog, Overcast
Fog, Overcast
 Wind from SSW
Wind: SSW 6 mph , 9 km/h
Temperature: 59°F , 15°C
Dew Point: 59°F , 15°C
Humidity: 100%
Barometer: 30.19 inHg , 1022.4 hPa
Summary: Fog
Clouds: Overcast
Visibility: 1/4 mile , 0.4 km
Cloud details: Overcast 300 ft
2021/12/02 15:35 KEDC 021535Z AUTO 21005KT 1/4SM FG OVC003 15/15 A3019 RMK AO2
KGTU - Georgetown, Texas, USA
Distance from station: WNW 17mi, 28km
Updated: Thu, 02-Dec-2021 8:56am CST
Clear
Clear
 Wind from calm
Wind: Calm
Temperature: 57°F , 14°C
Dew Point: 55°F , 13°C
Humidity: 94%
Barometer: 30.20 inHg , 1022.7 hPa
Clouds: Clear
Visibility: 10 miles , 16 km
2021/12/02 14:56 KGTU 021456Z 00000KT 10SM CLR 14/13 A3020 RMK AO2 SLP227 T01440133 52012
 
KATT - Austin/Mabry, Texas, USA
Distance from station: SW 28mi, 45km
Updated: Thu, 02-Dec-2021 9:36am CST
Mist, Mostly cloudy
Mist, Mostly cloudy
 Wind from calm
Wind: Calm
Temperature: 61°F , 16°C
Dew Point: 57°F , 14°C
Humidity: 88%
Barometer: 30.20 inHg , 1022.7 hPa
Summary: Mist
Clouds: Mostly cloudy
Visibility: 3 miles , 5 km
Cloud details: Mostly cloudy 200 ft
2021/12/02 15:36 KATT 021536Z AUTO 00000KT 3SM BR BKN002 16/14 A3020 RMK AO2 T01610144
KAUS - Austin, Texas, USA
Distance from station: SSW 32mi, 51km
Updated: Thu, 02-Dec-2021 9:32am CST
Fog, Overcast
Fog, Overcast
 Wind from calm
Wind: Calm
Temperature: 59°F , 15°C
Dew Point: 59°F , 15°C
Humidity: 100%
Barometer: 30.19 inHg , 1022.4 hPa
Summary: Fog
Clouds: Overcast
Visibility: 1/4 mile , 0.4 km
Cloud details: Overcast 200 ft
2021/12/02 15:32 KAUS 021532Z 00000KT 1/4SM R18L/1400V3000FT FG VV002 15/15 A3019 RMK AO2 T01500150
 
KRYW - Lago Vista, Texas, USA
Distance from station: W 33mi, 54km
Updated: Thu, 02-Dec-2021 9:35am CST
Clear
Clear
 Wind from calm
Wind: Calm
Temperature: 61°F , 16°C
Dew Point: 61°F , 16°C
Humidity: 100%
Barometer: 30.20 inHg , 1022.7 hPa
Clouds: Clear
Visibility: 7 miles , 11 km
2021/12/02 15:35 KRYW 021535Z AUTO 00000KT 7SM CLR 16/16 A3020 RMK AO2 T01640160
KILE - Killeen Muni, Texas, USA
Distance from station: NNW 37mi, 59km
Updated: Thu, 02-Dec-2021 8:56am CST
Clear
Clear
 Wind from calm
Wind: Calm
Temperature: 57°F , 14°C
Dew Point: 57°F , 14°C
Humidity: 100%
Barometer: 30.18 inHg , 1022 hPa
Clouds: Clear
Visibility: 10 miles , 16 km
2021/12/02 14:56 KILE 021456Z AUTO 00000KT 10SM CLR 14/14 A3018 RMK AO2 SLP213 T01440139 53006
 
KTPL - Temple/Miller, Texas, USA
Distance from station: N 38mi, 61km
Updated: Thu, 02-Dec-2021 8:51am CST
Few Clouds
Few Clouds
 Wind from S
Wind: S 3 mph , 6 km/h
Temperature: 55°F , 13°C
Dew Point: 55°F , 13°C
Humidity: 100%
Barometer: 30.19 inHg , 1022.4 hPa
Clouds: Few Clouds
Visibility: 9 miles , 14 km
Cloud details: Few Clouds 100 ft
2021/12/02 14:51 KTPL 021451Z AUTO 17003KT 9SM FEW001 13/13 A3019 RMK AO2 SLP215 T01330133 51005
KGYB - Giddings-Lee, Texas, USA
Distance from station: SE 39mi, 62km
Updated: Thu, 02-Dec-2021 9:35am CST
Fog, Overcast
Fog, Overcast
 Wind from calm
Wind: Calm
Temperature: 61°F , 16°C
Dew Point: 61°F , 16°C
Humidity: 100%
Barometer: 30.20 inHg , 1022.7 hPa
Summary: Fog
Clouds: Overcast
Visibility: 1/4 mile , 0.4 km
Cloud details: Overcast 100 ft
2021/12/02 15:35 KGYB 021535Z AUTO 00000KT 1/4SM FG OVC001 16/16 A3020 RMK AO2 T01590158
 
KGRK - Gray/Ft Hood, Texas, USA
Distance from station: NW 42mi, 67km
Updated: Thu, 02-Dec-2021 7:56am CST
NOT Current
Mist, Partly cloudy
Mist, Partly cloudy
 Wind from calm
Wind: Calm
Temperature: 52°F , 11°C
Dew Point: 50°F , 10°C
Humidity: 94%
Barometer: 30.15 inHg , 1021 hPa
Summary: Mist
Clouds: Partly cloudy
Visibility: 4 miles , 6 km
Cloud details: Partly cloudy 25000 ft
2021/12/02 13:56 KGRK 021356Z 00000KT 4SM BR SCT250 11/10 A3015 RMK AO2A VIS 3/8 RWY33 SLP209 T01060101
KHLR - Ft Hood/Killeen, Texas, USA
Distance from station: NNW 42mi, 67km
Updated: Thu, 02-Dec-2021 8:03am CST
NOT Current
Mist, Clear
Mist, Clear
 Wind from calm
Wind: Calm
Temperature: 54°F , 12°C
Dew Point: 54°F , 12°C
Humidity: 100%
Barometer: 30.17 inHg , 1021.7 hPa
Summary: Mist
Clouds: Clear
Visibility: 3 miles , 5 km
2021/12/02 14:03 KHLR 021403Z AUTO 00000KT 3SM BR CLR 12/12 A3017 RMK AO2 SLP213
 
KRWV - Caldwell, Texas, USA
Distance from station: E 43mi, 69km
Updated: Thu, 02-Dec-2021 9:35am CST
Partly cloudy
Partly cloudy
 Wind from calm
Wind: Calm
Temperature: 61°F , 16°C
Dew Point: 61°F , 16°C
Humidity: 100%
Barometer: 30.20 inHg , 1022.7 hPa
Clouds: Partly cloudy
Visibility: 10 miles , 16 km
Cloud details: Partly cloudy 100 ft
2021/12/02 15:35 KRWV 021535Z AUTO 00000KT 10SM SCT001 16/16 A3020 RMK AO2 T01650164
KBMQ - Burnet, Texas, USA
Distance from station: WNW 50mi, 80km
Updated: Thu, 02-Dec-2021 8:53am CST
Clear
Clear
 Wind from calm
Wind: Calm
Temperature: 55°F , 13°C
Dew Point: 54°F , 12°C
Humidity: 94%
Barometer: 30.20 inHg , 1022.7 hPa
Clouds: Clear
Visibility: 10 miles , 16 km
2021/12/02 14:53 KBMQ 021453Z AUTO 00000KT 10SM CLR 13/12 A3020 RMK AO2 SLP220 T01330122 51009